Time;durP1;ratioP1;P1;durP2;ratioP2;P2;SDS_P1;SDS_P2;PMS_P1;PMS_P2;Temp;Humidity;BMP_temperature;BMP_pressure;BME280_temperature;BME280_humidity;BME280_pressure;Samples;Min_cycle;Max_cycle;Signal;HPM_P1;HPM_P2
2023/10/30 00:00:36;;;;;;;;;;;;;;;13.51;90.31;98853.41;1088284;47;1106;-79
2023/10/30 00:01:39;;;;;;;;;;;;;;;13.52;90.28;98848.88;1088389;47;1112;-81
2023/10/30 00:02:39;;;;;;;;;;;;;;;13.52;90.01;98849.69;1088362;54;1126;-80
2023/10/30 00:03:44;;;;;;;;;;;;;;;13.53;90.21;98853.22;1088573;47;1024;-83
2023/10/30 00:04:48;;;;;;;;;;;;;;;13.51;90.82;98844.53;1088726;54;1019;-82
2023/10/30 00:05:53;;;;;;;;;;;;;;;13.52;91.29;98840.81;1088795;54;904;-81
2023/10/30 00:06:54;;;;;;;;;;;;;;;13.52;90.75;98847.00;1088797;54;1394;-82
2023/10/30 00:08:01;;;;;;;;;;;;;;;13.55;90.70;98825.16;1088768;54;959;-82
2023/10/30 00:09:02;;;;;;;;;;;;;;;13.56;90.55;98826.81;1088657;54;919;-83
2023/10/30 00:10:03;;;;;;;;;;;;;;;13.55;90.33;98835.91;1088576;47;943;-82
2023/10/30 00:11:07;;;;;;;;;;;;;;;13.49;90.90;98841.19;1088633;54;1000;-83
2023/10/30 00:12:08;;;;;;;;;;;;;;;13.43;91.17;98845.47;1088687;46;985;-81
2023/10/30 00:13:18;;;;;;;;;;;;;;;13.41;91.13;98859.09;1088684;47;908;-83
2023/10/30 00:14:24;;;;;;;;;;;;;;;13.34;91.55;98860.03;1088415;54;1857;-80
2023/10/30 00:15:25;;;;;;;;;;;;;;;13.32;91.57;98862.09;1088426;54;1166;-82
2023/10/30 00:16:29;;;;;;;;;;;;;;;13.25;91.77;98865.53;1088671;47;982;-82
2023/10/30 00:17:30;;;;;;;;;;;;;;;13.29;91.91;98865.16;1088515;47;1155;-82
2023/10/30 00:18:34;;;;;;;;;;;;;;;13.30;91.59;98858.75;1088426;47;1015;-80
2023/10/30 00:19:36;;;;;;;;;;;;;;;13.33;91.24;98856.53;1087921;47;1028;-82
2023/10/30 00:20:58;;;;;;;;;;;;;;;13.35;91.50;98848.28;1088656;46;991;-84
2023/10/30 00:22:03;;;;;;;;;;;;;;;13.37;91.34;98838.19;1088598;47;903;-82
2023/10/30 00:30:05;;;;;;;;;;;;;;;13.29;90.92;98879.38;1088841;54;950;-81
2023/10/30 00:31:07;;;;;;;;;;;;;;;13.32;90.70;98879.00;1088776;47;989;-83
2023/10/30 00:37:12;;;;;;;;;;;;;;;13.49;90.44;98863.53;1088066;54;1234;-81
2023/10/30 01:11:38;;;;;;;;;;;;;;;13.22;89.75;98900.81;1088610;47;892;-82
2023/10/30 01:15:35;;;;;;;;;;;;;;;13.23;89.23;98899.75;1087529;54;1867;-83
2023/10/30 01:19:21;;;;;;;;;;;;;;;13.22;89.37;98894.59;1088882;54;811;-83
2023/10/30 01:20:27;;;;;;;;;;;;;;;13.17;89.04;98892.47;1088652;47;967;-84
2023/10/30 01:21:33;;;;;;;;;;;;;;;13.20;89.34;98897.47;1088771;54;1067;-84
2023/10/30 01:22:33;;;;;;;;;;;;;;;13.10;89.37;98903.13;1088720;54;939;-84
2023/10/30 01:23:37;;;;;;;;;;;;;;;13.08;88.97;98904.34;1088615;47;882;-82
2023/10/30 01:24:38;;;;;;;;;;;;;;;13.07;88.76;98902.69;1088433;47;938;-82
2023/10/30 01:34:13;;;;;;;;;;;;;;;13.01;88.44;98923.06;1088739;54;713;-82
2023/10/30 01:35:14;;;;;;;;;;;;;;;13.06;88.47;98917.97;1088577;54;1845;-81
2023/10/30 01:36:15;;;;;;;;;;;;;;;13.08;88.20;98915.91;1088621;54;1002;-83
2023/10/30 01:37:20;;;;;;;;;;;;;;;13.16;87.93;98906.09;1088652;47;1424;-82
2023/10/30 01:38:21;;;;;;;;;;;;;;;13.15;88.04;98916.00;1088220;47;957;-81
2023/10/30 01:57:04;;;;;;;;;;;;;;;13.11;87.42;98904.81;1087977;54;1285;-82
2023/10/30 01:59:32;;;;;;;;;;;;;;;13.22;87.12;98894.59;1088452;47;966;-81
2023/10/30 02:00:33;;;;;;;;;;;;;;;13.22;86.72;98898.13;1088447;47;968;-81
2023/10/30 02:01:38;;;;;;;;;;;;;;;13.26;87.05;98896.72;1088631;54;871;-81
2023/10/30 02:02:51;;;;;;;;;;;;;;;13.26;86.82;98904.75;1088550;47;1556;-81
2023/10/30 02:03:57;;;;;;;;;;;;;;;13.26;86.34;98902.06;1088703;47;1358;-81
2023/10/30 02:05:04;;;;;;;;;;;;;;;13.24;86.37;98903.28;1088781;54;1141;-82
2023/10/30 02:08:21;;;;;;;;;;;;;;;13.25;86.59;98903.09;1088803;47;1401;-82
2023/10/30 02:09:28;;;;;;;;;;;;;;;13.31;86.15;98895.31;1088785;47;1472;-82
2023/10/30 02:14:01;;;;;;;;;;;;;;;13.34;85.97;98886.88;1088988;47;833;-83
2023/10/30 02:19:49;;;;;;;;;;;;;;;13.26;85.52;98888.66;1088296;54;910;-81
2023/10/30 02:34:13;;;;;;;;;;;;;;;13.38;83.65;98864.00;1087987;54;1240;-84
2023/10/30 02:35:15;;;;;;;;;;;;;;;13.40;83.45;98862.00;1089044;54;1879;-83
2023/10/30 02:43:15;;;;;;;;;;;;;;;13.45;83.11;98856.88;1089052;54;712;-82
2023/10/30 02:44:16;;;;;;;;;;;;;;;13.46;82.92;98860.41;1088830;46;863;-82
2023/10/30 03:31:52;;;;;;;;;;;;;;;13.25;80.82;98819.91;1089181;54;815;-81
2023/10/30 03:33:27;;;;;;;;;;;;;;;;;;;;;
2023/10/30 04:03:39;;;;;;;;;;;;;;;13.50;78.60;98784.66;1087949;54;976;-81
2023/10/30 04:05:11;;;;;;;;;;;;;;;13.48;78.79;98788.53;1088446;46;1016;-82
2023/10/30 04:06:37;;;;;;;;;;;;;;;13.51;78.15;98785.47;1088436;47;943;-81
2023/10/30 04:09:54;;;;;;;;;;;;;;;;;;;;;
2023/10/30 04:10:56;;;;;;;;;;;;;;;13.54;78.01;98769.78;1088761;46;963;-82
2023/10/30 04:12:03;;;;;;;;;;;;;;;13.55;77.63;98771.47;1088404;47;1023;-81
2023/10/30 04:13:12;;;;;;;;;;;;;;;13.56;77.63;98767.75;1088336;47;1439;-81
2023/10/30 04:16:03;;;;;;;;;;;;;;;13.55;77.28;98771.47;1088324;47;1852;-80
2023/10/30 04:17:29;;;;;;;;;;;;;;;13.53;77.64;98775.38;1088064;47;1288;-81
2023/10/30 04:18:33;;;;;;;;;;;;;;;13.56;77.07;98773.13;1088226;47;952;-80
2023/10/30 04:19:34;;;;;;;;;;;;;;;13.55;77.56;98776.81;1088171;47;1061;-80
2023/10/30 04:20:37;;;;;;;;;;;;;;;13.54;77.02;98785.91;1088162;47;1459;-83
2023/10/30 04:21:41;;;;;;;;;;;;;;;13.53;76.85;98791.47;1088340;54;917;-83
2023/10/30 04:22:44;;;;;;;;;;;;;;;13.53;76.62;98788.78;1088187;47;1509;-82
2023/10/30 04:23:45;;;;;;;;;;;;;;;13.54;76.81;98788.59;1088275;54;990;-80
2023/10/30 04:33:04;;;;;;;;;;;;;;;13.56;75.62;98758.84;1088367;46;1212;-80
2023/10/30 04:43:37;;;;;;;;;;;;;;;13.53;74.46;98778.88;1088493;47;1011;-81
2023/10/30 04:44:38;;;;;;;;;;;;;;;13.56;74.87;98783.84;1088410;54;988;-81
2023/10/30 04:45:41;;;;;;;;;;;;;;;13.49;75.01;98780.31;1088507;54;1011;-81
2023/10/30 04:46:42;;;;;;;;;;;;;;;13.49;74.78;98777.63;1088537;54;1039;-82
2023/10/30 04:47:43;;;;;;;;;;;;;;;13.47;75.01;98779.66;1088482;54;1309;-81
2023/10/30 04:48:46;;;;;;;;;;;;;;;13.41;75.22;98785.81;1088410;47;1354;-81
2023/10/30 04:58:42;;;;;;;;;;;;;;;13.11;77.99;98791.28;1088355;54;992;-81
2023/10/30 04:59:43;;;;;;;;;;;;;;;13.07;78.24;98795.38;1088203;46;1006;-81
2023/10/30 05:00:47;;;;;;;;;;;;;;;13.07;78.05;98781.97;1088092;46;1087;-81
2023/10/30 05:01:48;;;;;;;;;;;;;;;13.15;77.68;98784.50;1088136;47;926;-81
2023/10/30 05:02:51;;;;;;;;;;;;;;;13.12;77.81;98776.88;1088133;47;977;-82
2023/10/30 05:03:52;;;;;;;;;;;;;;;13.13;77.48;98778.50;1088015;47;987;-80
2023/10/30 05:04:55;;;;;;;;;;;;;;;13.12;77.43;98776.88;1088076;47;1019;-79
2023/10/30 05:05:56;;;;;;;;;;;;;;;13.16;77.36;98780.81;1088100;54;994;-79
2023/10/30 05:06:59;;;;;;;;;;;;;;;13.20;77.11;98768.69;1088009;47;1401;-80
2023/10/30 05:08:06;;;;;;;;;;;;;;;13.18;77.44;98765.34;1088108;47;1045;-82
2023/10/30 05:10:40;;;;;;;;;;;;;;;13.21;77.32;98770.34;1088795;47;1258;-83
2023/10/30 05:11:40;;;;;;;;;;;;;;;13.24;77.46;98763.75;1088521;47;981;-83
2023/10/30 05:12:44;;;;;;;;;;;;;;;13.22;77.69;98772.00;1088546;54;982;-80
2023/10/30 05:21:42;;;;;;;;;;;;;;;12.91;80.56;98797.28;1088637;47;1603;-82
2023/10/30 05:22:43;;;;;;;;;;;;;;;12.89;80.68;98788.59;1088391;47;1388;-78
2023/10/30 05:23:46;;;;;;;;;;;;;;;12.90;80.85;98792.09;1088376;47;1441;-82
2023/10/30 05:24:47;;;;;;;;;;;;;;;12.90;80.54;98790.25;1088334;54;1011;-81
2023/10/30 05:30:57;;;;;;;;;;;;;;;12.84;80.92;98787.50;1088828;47;1017;-83
2023/10/30 05:32:41;;;;;;;;;;;;;;;;;;;;;
2023/10/30 05:44:45;;;;;;;;;;;;;;;13.16;79.98;98751.28;1088549;47;1254;-81
2023/10/30 05:45:46;;;;;;;;;;;;;;;13.08;80.77;98744.19;1088577;47;1660;-82
2023/10/30 05:48:56;;;;;;;;;;;;;;;13.05;80.38;98746.44;1088908;47;948;-83
2023/10/30 05:57:35;;;;;;;;;;;;;;;13.05;81.25;98741.06;1088402;47;1347;-82
2023/10/30 05:58:36;;;;;;;;;;;;;;;13.06;80.98;98743.59;1088446;54;978;-81
2023/10/30 06:09:11;;;;;;;;;;;;;;;13.08;81.76;98738.00;1088497;54;742;-83
2023/10/30 06:10:25;;;;;;;;;;;;;;;13.07;81.65;98737.19;1088472;47;982;-82
2023/10/30 06:11:28;;;;;;;;;;;;;;;13.10;81.86;98733.28;1088583;54;991;-84
2023/10/30 06:12:44;;;;;;;;;;;;;;;13.11;81.90;98734.97;1088970;47;964;-84
2023/10/30 06:13:45;;;;;;;;;;;;;;;13.11;81.99;98735.78;1088884;46;956;-83
2023/10/30 06:14:59;;;;;;;;;;;;;;;13.05;81.97;98749.13;1088805;47;981;-85
2023/10/30 06:16:09;;;;;;;;;;;;;;;13.04;82.12;98755.50;1088852;54;1842;-85
2023/10/30 06:17:18;;;;;;;;;;;;;;;13.01;82.02;98747.88;1088963;46;1205;-84
2023/10/30 06:19:56;;;;;;;;;;;;;;;13.00;81.93;98746.19;1088924;54;895;-85
2023/10/30 06:22:48;;;;;;;;;;;;;;;;;;;;;
2023/10/30 06:24:02;;;;;;;;;;;;;;;13.04;81.02;98748.31;1088597;47;974;-82
2023/10/30 06:25:06;;;;;;;;;;;;;;;13.04;81.30;98761.72;1088355;47;1543;-82
2023/10/30 06:26:10;;;;;;;;;;;;;;;13.02;81.49;98754.88;1088435;47;1385;-82
2023/10/30 06:27:31;;;;;;;;;;;;;;;13.05;81.40;98773.25;1088939;54;1436;-85
2023/10/30 06:31:45;;;;;;;;;;;;;;;12.98;81.41;98781.28;1089210;47;843;-83
2023/10/30 06:32:50;;;;;;;;;;;;;;;13.04;81.35;98782.34;1088712;54;1058;-82
2023/10/30 06:33:54;;;;;;;;;;;;;;;13.03;81.69;98783.38;1088912;54;992;-83
2023/10/30 06:34:55;;;;;;;;;;;;;;;13.04;82.20;98783.19;1088826;54;1012;-81
2023/10/30 06:35:56;;;;;;;;;;;;;;;13.05;81.65;98781.31;1088718;47;1848;-81
2023/10/30 06:36:59;;;;;;;;;;;;;;;13.05;82.05;98781.31;1088575;47;2032;-82
2023/10/30 06:38:34;;;;;;;;;;;;;;;13.08;81.81;98779.06;1088750;47;967;-85
2023/10/30 06:39:53;;;;;;;;;;;;;;;13.00;82.50;98773.03;1089002;47;1402;-84
2023/10/30 06:40:56;;;;;;;;;;;;;;;13.04;82.27;98775.13;1088551;54;1016;-82
2023/10/30 06:42:00;;;;;;;;;;;;;;;13.10;81.72;98778.91;1088551;54;938;-82
2023/10/30 06:43:00;;;;;;;;;;;;;;;13.16;81.67;98772.75;1088741;54;940;-83
2023/10/30 06:44:01;;;;;;;;;;;;;;;13.17;81.67;98777.09;1088711;54;1023;-83
2023/10/30 06:45:04;;;;;;;;;;;;;;;13.13;80.94;98778.50;1088691;54;982;-82
2023/10/30 06:46:05;;;;;;;;;;;;;;;13.08;80.96;98778.25;1088656;47;1327;-81
2023/10/30 06:47:09;;;;;;;;;;;;;;;13.09;80.83;98778.06;1088506;47;1447;-82
2023/10/30 06:48:09;;;;;;;;;;;;;;;13.16;80.70;98778.13;1088686;47;1451;-82
2023/10/30 06:49:13;;;;;;;;;;;;;;;13.20;80.46;98776.72;1088690;47;1536;-82
2023/10/30 06:50:14;;;;;;;;;;;;;;;13.23;80.45;98767.44;1088717;54;977;-82
2023/10/30 06:51:17;;;;;;;;;;;;;;;13.25;80.08;98766.22;1088671;46;1458;-82
2023/10/30 06:52:18;;;;;;;;;;;;;;;13.31;79.95;98770.00;1088708;47;1622;-82
2023/10/30 06:56:57;;;;;;;;;;;;;;;13.18;80.22;98776.09;1088559;47;1349;-83
2023/10/30 06:57:58;;;;;;;;;;;;;;;13.14;79.82;98774.78;1088766;46;972;-83
2023/10/30 06:59:01;;;;;;;;;;;;;;;13.11;80.14;98775.19;1088711;47;954;-83
2023/10/30 07:00:06;;;;;;;;;;;;;;;13.08;80.48;98778.25;1088759;54;984;-82
2023/10/30 07:01:46;;;;;;;;;;;;;;;13.06;80.54;98783.81;1089058;54;1225;-82
2023/10/30 07:03:15;;;;;;;;;;;;;;;13.08;80.52;98791.66;1089018;46;1053;-85
2023/10/30 07:04:19;;;;;;;;;;;;;;;13.12;80.74;98784.91;1088399;47;1062;-82
2023/10/30 07:05:22;;;;;;;;;;;;;;;13.13;80.68;98781.19;1088737;54;1010;-82
2023/10/30 07:07:56;;;;;;;;;;;;;;;13.18;80.46;98773.41;1088771;47;977;-81
2023/10/30 07:15:33;;;;;;;;;;;;;;;13.24;80.39;98772.63;1088722;47;890;-84
2023/10/30 07:16:34;;;;;;;;;;;;;;;13.30;80.36;98776.38;1088287;54;920;-81
2023/10/30 07:17:38;;;;;;;;;;;;;;;13.32;80.09;98777.03;1088102;47;1240;-81
2023/10/30 07:18:39;;;;;;;;;;;;;;;13.33;80.19;98777.84;1088203;47;945;-81
2023/10/30 07:19:42;;;;;;;;;;;;;;;13.26;81.06;98777.81;1088235;47;890;-82
2023/10/30 07:20:43;;;;;;;;;;;;;;;13.22;81.22;98780.06;1087948;54;987;-82
2023/10/30 07:21:46;;;;;;;;;;;;;;;13.24;81.15;98771.81;1088153;47;1042;-80
2023/10/30 07:22:47;;;;;;;;;;;;;;;13.24;81.12;98779.84;1088237;46;936;-81
2023/10/30 07:23:50;;;;;;;;;;;;;;;13.22;80.85;98777.38;1088651;47;928;-81
2023/10/30 07:24:51;;;;;;;;;;;;;;;13.30;80.98;98776.38;1088344;54;937;-80
2023/10/30 07:25:54;;;;;;;;;;;;;;;13.34;80.67;98772.31;1088246;54;1003;-81
2023/10/30 07:28:22;;;;;;;;;;;;;;;13.39;79.97;98772.56;1088406;47;813;-82
2023/10/30 07:29:23;;;;;;;;;;;;;;;13.42;79.68;98765.97;1088247;54;932;-81
2023/10/30 07:30:24;;;;;;;;;;;;;;;13.47;79.65;98763.56;1088174;54;1040;-81
2023/10/30 07:31:29;;;;;;;;;;;;;;;13.53;79.47;98768.13;1088233;54;919;-81
2023/10/30 07:32:30;;;;;;;;;;;;;;;13.55;79.04;98776.00;1088176;47;906;-82
2023/10/30 07:33:34;;;;;;;;;;;;;;;13.59;78.79;98773.75;1088167;47;976;-81
2023/10/30 07:34:34;;;;;;;;;;;;;;;13.60;79.21;98775.44;1088084;47;1081;-81
2023/10/30 07:35:40;;;;;;;;;;;;;;;13.60;78.98;98772.75;1088589;54;940;-85
2023/10/30 07:36:57;;;;;;;;;;;;;;;13.56;79.03;98770.44;1088686;47;903;-85
2023/10/30 07:46:40;;;;;;;;;;;;;;;13.65;78.52;98775.66;754186;54;52168;-81
2023/10/30 07:47:41;;;;;;;;;;;;;;;13.69;78.37;98766.19;1090030;51;1355;-81
2023/10/30 07:48:44;;;;;;;;;;;;;;;13.71;78.28;98770.34;1089905;46;909;-81
2023/10/30 07:49:45;;;;;;;;;;;;;;;13.76;78.12;98760.84;1089782;46;871;-81
2023/10/30 07:50:48;;;;;;;;;;;;;;;13.80;78.12;98762.13;1089855;54;904;-83
2023/10/30 07:51:49;;;;;;;;;;;;;;;13.83;78.06;98762.56;1089736;47;871;-80
2023/10/30 07:52:52;;;;;;;;;;;;;;;13.85;78.03;98760.50;1089853;54;970;-80
2023/10/30 07:53:53;;;;;;;;;;;;;;;13.89;77.96;98755.56;1089770;46;1599;-82
2023/10/30 07:54:56;;;;;;;;;;;;;;;13.92;77.75;98754.34;1090062;54;965;-80
2023/10/30 07:55:57;;;;;;;;;;;;;;;13.95;77.53;98757.44;1090165;54;1019;-81
2023/10/30 07:57:04;;;;;;;;;;;;;;;13.96;77.73;98751.06;1090062;46;1538;-80
2023/10/30 07:58:05;;;;;;;;;;;;;;;13.99;77.68;98744.44;1090213;54;1163;-82
2023/10/30 07:59:06;;;;;;;;;;;;;;;13.99;77.29;98742.59;1090195;54;863;-82
2023/10/30 08:00:11;;;;;;;;;;;;;;;14.03;77.33;98738.47;1090154;54;1848;-82
2023/10/30 08:01:12;;;;;;;;;;;;;;;14.03;76.76;98746.53;1090156;46;1028;-82
2023/10/30 08:02:18;;;;;;;;;;;;;;;14.05;76.86;98743.66;1090193;54;944;-82
2023/10/30 08:03:19;;;;;;;;;;;;;;;14.06;76.50;98744.47;1090159;54;970;-82
2023/10/30 08:04:22;;;;;;;;;;;;;;;14.09;76.76;98742.22;1090114;54;1042;-82
2023/10/30 08:05:22;;;;;;;;;;;;;;;14.12;76.64;98739.16;1090115;47;970;-82
2023/10/30 08:06:26;;;;;;;;;;;;;;;14.17;76.32;98746.59;1090094;54;984;-83
2023/10/30 08:07:26;;;;;;;;;;;;;;;14.22;76.09;98743.31;1090112;46;1568;-80
2023/10/30 08:08:30;;;;;;;;;;;;;;;14.27;76.33;98736.31;1090081;47;1009;-82
2023/10/30 08:09:34;;;;;;;;;;;;;;;14.32;76.20;98736.53;1090221;46;920;-85
2023/10/30 08:12:10;;;;;;;;;;;;;;;14.32;75.73;98733.84;1090055;46;1444;-81
2023/10/30 08:13:11;;;;;;;;;;;;;;;14.34;75.40;98737.16;1090067;46;1535;-82
2023/10/30 08:14:14;;;;;;;;;;;;;;;14.29;75.37;98739.63;1090161;54;992;-82
2023/10/30 08:15:15;;;;;;;;;;;;;;;14.26;75.59;98740.03;1090180;54;895;-82
2023/10/30 08:16:18;;;;;;;;;;;;;;;14.28;75.55;98739.81;1090205;46;1028;-82
2023/10/30 08:17:21;;;;;;;;;;;;;;;14.30;75.52;98745.84;1090167;54;1389;-82
2023/10/30 08:18:25;;;;;;;;;;;;;;;14.31;75.15;98737.56;1090085;46;1481;-82
2023/10/30 08:19:25;;;;;;;;;;;;;;;14.34;75.30;98745.22;1090110;54;1100;-83
2023/10/30 08:20:26;;;;;;;;;;;;;;;14.36;75.17;98739.63;1090160;54;1872;-83
2023/10/30 08:21:29;;;;;;;;;;;;;;;14.39;75.06;98741.94;1090187;54;865;-83
2023/10/30 08:22:30;;;;;;;;;;;;;;;14.39;75.11;98744.63;1090299;54;976;-82
2023/10/30 08:23:34;;;;;;;;;;;;;;;14.46;74.78;98748.16;1090165;46;1451;-83
2023/10/30 08:24:35;;;;;;;;;;;;;;;14.51;74.84;98740.34;1090204;46;1425;-81
2023/10/30 08:25:38;;;;;;;;;;;;;;;14.37;74.61;98746.69;1090237;46;1443;-82
2023/10/30 08:26:39;;;;;;;;;;;;;;;14.36;74.88;98750.41;1090187;46;1352;-82
2023/10/30 08:27:43;;;;;;;;;;;;;;;14.44;74.71;98746.72;1090146;54;1160;-82
2023/10/30 08:28:45;;;;;;;;;;;;;;;14.46;74.40;98741.97;1090263;54;904;-83
2023/10/30 08:37:18;;;;;;;;;;;;;;;14.93;73.92;98729.47;1090069;54;1398;-81
2023/10/30 08:38:21;;;;;;;;;;;;;;;15.00;73.00;98728.66;1090015;46;937;-84
2023/10/30 08:39:31;;;;;;;;;;;;;;;15.13;73.23;98728.66;1090230;46;960;-84
2023/10/30 08:41:17;;;;;;;;;;;;;;;15.30;72.70;98729.09;1090035;46;1842;-84
2023/10/30 08:42:21;;;;;;;;;;;;;;;15.54;72.20;98724.09;1089770;46;903;-81
2023/10/30 08:43:54;;;;;;;;;;;;;;;15.70;71.24;98728.22;1089859;54;1057;-85
2023/10/30 08:44:58;;;;;;;;;;;;;;;15.83;71.36;98724.66;1089825;46;1441;-80
2023/10/30 08:46:49;;;;;;;;;;;;;;;15.91;70.62;98727.16;1089727;54;1196;-81
2023/10/30 08:54:12;;;;;;;;;;;;;;;16.66;67.58;98729.31;1088342;54;1011;-82
2023/10/30 14:48:18;;;;;;;;;;;;;;;16.58;65.00;98102.94;1088343;54;2079;-82
2023/10/30 14:49:22;;;;;;;;;;;;;;;16.51;65.49;98113.84;1088063;47;1125;-81
2023/10/30 14:50:28;;;;;;;;;;;;;;;16.48;64.86;98104.31;1088134;47;1461;-81
2023/10/30 14:51:30;;;;;;;;;;;;;;;16.53;64.52;98112.53;1088350;47;1072;-81
2023/10/30 14:52:31;;;;;;;;;;;;;;;16.57;64.55;98107.50;1088476;47;1110;-81
2023/10/30 14:53:35;;;;;;;;;;;;;;;16.55;64.39;98114.19;1088434;47;1445;-81
2023/10/30 14:54:41;;;;;;;;;;;;;;;16.50;64.40;98106.78;1088443;47;1456;-82
2023/10/30 14:55:46;;;;;;;;;;;;;;;16.47;64.69;98112.63;1088755;47;1435;-81
2023/10/30 14:57:10;;;;;;;;;;;;;;;16.55;64.52;98112.31;1088789;54;1259;-82
2023/10/30 14:58:23;;;;;;;;;;;;;;;16.61;64.23;98113.25;1088722;47;1578;-81
2023/10/30 14:59:23;;;;;;;;;;;;;;;16.65;64.36;98120.66;1088751;54;990;-81
2023/10/30 15:00:27;;;;;;;;;;;;;;;16.67;64.39;98115.84;1088657;47;1853;-82
2023/10/30 15:01:28;;;;;;;;;;;;;;;16.71;64.07;98118.09;1088432;54;958;-81
2023/10/30 15:02:35;;;;;;;;;;;;;;;16.73;64.13;98127.59;1088446;54;1086;-81
2023/10/30 15:03:55;;;;;;;;;;;;;;;16.76;64.41;98120.91;1088765;54;1099;-82
2023/10/30 15:05:01;;;;;;;;;;;;;;;16.78;64.43;98121.50;1088519;47;1460;-81
2023/10/30 15:06:10;;;;;;;;;;;;;;;16.76;64.50;98121.75;1088508;54;1516;-83
2023/10/30 15:28:17;;;;;;;;;;;;;;;16.62;65.47;98120.28;1088760;54;858;-83
2023/10/30 15:29:19;;;;;;;;;;;;;;;16.64;65.62;98124.41;1088449;47;1108;-83
2023/10/30 15:30:23;;;;;;;;;;;;;;;16.61;65.92;98122.19;1088406;47;918;-83
2023/10/30 15:39:10;;;;;;;;;;;;;;;16.38;66.60;98102.19;1088009;54;968;-78
2023/10/30 15:40:11;;;;;;;;;;;;;;;16.44;66.14;98096.91;1087647;47;1078;-80
2023/10/30 16:00:32;;;;;;;;;;;;;;;16.05;70.03;98065.75;1088728;54;966;-83
2023/10/30 16:01:45;;;;;;;;;;;;;;;16.11;69.39;98071.28;1088671;47;1842;-86
2023/10/30 16:04:20;;;;;;;;;;;;;;;16.10;69.77;98072.31;1088903;47;831;-81
2023/10/30 16:11:35;;;;;;;;;;;;;;;16.06;70.76;98072.75;1088998;54;1113;-82
2023/10/30 16:12:49;;;;;;;;;;;;;;;16.08;70.57;98069.03;1088899;54;952;-82
2023/10/30 16:13:58;;;;;;;;;;;;;;;16.12;70.79;98059.44;1088800;54;1132;-82
2023/10/30 16:15:09;;;;;;;;;;;;;;;;;;;;;
2023/10/30 16:17:23;;;;;;;;;;;;;;;15.83;73.27;98048.41;1089005;54;1297;-80
2023/10/30 16:19:31;;;;;;;;;;;;;;;15.83;72.59;98057.28;1088961;54;788;-80
2023/10/30 16:20:59;;;;;;;;;;;;;;;15.82;72.52;98062.91;1088567;47;971;-82
2023/10/30 16:22:02;;;;;;;;;;;;;;;15.79;73.21;98066.06;1088879;46;893;-80
2023/10/30 16:23:03;;;;;;;;;;;;;;;15.82;72.95;98068.31;1088393;47;918;-79
2023/10/30 16:24:06;;;;;;;;;;;;;;;15.84;72.39;98071.63;1088509;54;1355;-80
2023/10/30 16:25:07;;;;;;;;;;;;;;;15.85;72.61;98066.00;1088497;54;1035;-81
2023/10/30 16:26:10;;;;;;;;;;;;;;;15.89;72.82;98059.13;1088170;54;1145;-80
2023/10/30 16:27:11;;;;;;;;;;;;;;;15.70;75.25;98054.78;1088641;54;1350;-80
2023/10/30 16:33:17;;;;;;;;;;;;;;;15.53;75.19;98041.09;1088880;54;722;-81
2023/10/30 16:36:43;;;;;;;;;;;;;;;15.69;74.29;98045.06;1088238;54;1240;-82
2023/10/30 16:42:41;;;;;;;;;;;;;;;15.56;75.34;98060.31;1088911;54;672;-80
2023/10/30 16:43:41;;;;;;;;;;;;;;;15.57;75.54;98053.09;1088879;54;977;-79
2023/10/30 16:44:46;;;;;;;;;;;;;;;15.59;75.71;98054.50;1088335;46;920;-79
2023/10/30 16:45:49;;;;;;;;;;;;;;;15.57;75.71;98058.47;1088442;47;953;-81
2023/10/30 16:47:03;;;;;;;;;;;;;;;15.55;75.89;98058.69;1088313;51;1328;-82
2023/10/30 16:48:04;;;;;;;;;;;;;;;15.49;77.04;98059.59;1088625;47;981;-81
2023/10/30 16:49:09;;;;;;;;;;;;;;;15.49;76.67;98064.16;1088458;47;959;-82
2023/10/30 16:50:10;;;;;;;;;;;;;;;15.52;76.70;98064.53;1088506;46;914;-83
2023/10/30 16:51:14;;;;;;;;;;;;;;;15.53;76.48;98068.88;1088409;47;898;-82
2023/10/30 16:52:14;;;;;;;;;;;;;;;15.48;76.85;98065.22;1088557;54;946;-83
2023/10/30 16:53:37;;;;;;;;;;;;;;;15.47;77.44;98071.63;1088534;54;909;-84
2023/10/30 16:54:37;;;;;;;;;;;;;;;15.38;77.69;98074.63;1088533;54;951;-82
2023/10/30 16:55:41;;;;;;;;;;;;;;;15.31;78.34;98076.56;1088576;54;1059;-83
2023/10/30 16:56:47;;;;;;;;;;;;;;;15.31;78.00;98083.81;1088558;47;889;-83
2023/10/30 17:04:46;;;;;;;;;;;;;;;15.25;78.79;98077.47;1088627;54;693;-83
2023/10/30 17:05:47;;;;;;;;;;;;;;;15.25;78.70;98090.91;1088854;54;1066;-83
2023/10/30 17:06:50;;;;;;;;;;;;;;;15.26;78.85;98092.56;1088325;47;1019;-83
2023/10/30 17:07:51;;;;;;;;;;;;;;;15.25;78.96;98097.13;1088600;54;927;-82
2023/10/30 17:08:56;;;;;;;;;;;;;;;15.28;78.70;98090.47;1088493;47;991;-82
2023/10/30 17:09:56;;;;;;;;;;;;;;;15.27;78.89;98099.59;1088748;54;1013;-83
2023/10/30 17:10:58;;;;;;;;;;;;;;;15.27;78.89;98094.22;1088679;47;1366;-81
2023/10/30 17:12:05;;;;;;;;;;;;;;;15.25;79.30;98104.38;1088813;54;1192;-83
2023/10/30 17:13:08;;;;;;;;;;;;;;;15.24;79.24;98100.03;1088738;54;1006;-81
2023/10/30 17:14:09;;;;;;;;;;;;;;;15.17;80.02;98099.28;1088747;54;962;-82
2023/10/30 17:15:12;;;;;;;;;;;;;;;15.18;80.39;98103.63;1088756;54;1017;-82
2023/10/30 17:16:16;;;;;;;;;;;;;;;15.11;80.76;98101.00;1088760;47;1400;-81
2023/10/30 17:17:19;;;;;;;;;;;;;;;15.06;81.10;98106.22;1088723;47;1442;-81
2023/10/30 17:18:26;;;;;;;;;;;;;;;15.08;80.62;98107.66;1088737;54;1384;-81
2023/10/30 17:19:29;;;;;;;;;;;;;;;15.05;81.03;98108.06;1088748;54;1411;-82
2023/10/30 17:20:39;;;;;;;;;;;;;;;15.05;80.99;98113.47;1088742;47;1003;-80
2023/10/30 17:21:43;;;;;;;;;;;;;;;15.01;81.23;98106.91;1088795;54;1848;-81
2023/10/30 17:22:44;;;;;;;;;;;;;;;14.98;81.78;98110.00;1088851;54;1157;-83
2023/10/30 17:23:47;;;;;;;;;;;;;;;14.92;82.24;98117.09;1088727;54;1118;-82
2023/10/30 17:24:47;;;;;;;;;;;;;;;14.93;82.12;98121.44;1088771;54;937;-81
2023/10/30 17:25:51;;;;;;;;;;;;;;;14.89;82.90;98119.41;1088846;54;1089;-82
2023/10/30 17:26:52;;;;;;;;;;;;;;;14.91;83.00;98117.31;1088778;47;1328;-83
2023/10/30 17:27:55;;;;;;;;;;;;;;;14.90;83.12;98123.75;1088769;47;1533;-82
2023/10/30 17:28:56;;;;;;;;;;;;;;;14.90;82.99;98126.44;1088825;54;998;-82
2023/10/30 17:29:56;;;;;;;;;;;;;;;14.86;83.53;98130.59;1088808;54;986;-82
2023/10/30 17:31:00;;;;;;;;;;;;;;;14.86;83.73;98130.59;1088807;47;970;-81
2023/10/30 17:32:00;;;;;;;;;;;;;;;14.81;84.35;98134.78;1088767;47;1357;-81
2023/10/30 17:33:01;;;;;;;;;;;;;;;14.77;84.18;98132.75;1088618;47;1369;-81
2023/10/30 17:34:04;;;;;;;;;;;;;;;14.72;84.77;98144.16;1088663;47;1503;-82
2023/10/30 17:35:05;;;;;;;;;;;;;;;14.77;84.22;98144.31;1088674;46;1521;-82
2023/10/30 17:36:11;;;;;;;;;;;;;;;14.79;84.15;98134.16;1088715;47;990;-82
2023/10/30 17:37:15;;;;;;;;;;;;;;;14.72;84.70;98130.72;1088943;54;1342;-82
2023/10/30 17:38:18;;;;;;;;;;;;;;;14.74;84.37;98139.38;1089041;54;1125;-83
2023/10/30 17:39:19;;;;;;;;;;;;;;;14.71;84.79;98139.81;1088853;47;1435;-82
2023/10/30 17:40:23;;;;;;;;;;;;;;;14.74;84.34;98133.19;1088912;47;955;-83
2023/10/30 17:41:24;;;;;;;;;;;;;;;14.71;84.65;98133.59;1088828;47;1857;-81
2023/10/30 17:42:28;;;;;;;;;;;;;;;14.68;85.10;98134.06;1088788;54;939;-83
2023/10/30 17:43:29;;;;;;;;;;;;;;;14.69;84.70;98144.59;1088723;47;1528;-83
2023/10/30 17:44:32;;;;;;;;;;;;;;;14.69;84.79;98141.91;1088691;47;1728;-83
2023/10/30 17:45:36;;;;;;;;;;;;;;;14.69;84.61;98141.91;1088903;47;1574;-82
2023/10/30 17:46:40;;;;;;;;;;;;;;;14.73;84.62;98142.28;1088558;47;1081;-82
2023/10/30 17:47:41;;;;;;;;;;;;;;;14.71;84.29;98145.19;1088539;54;1388;-81
2023/10/30 17:48:42;;;;;;;;;;;;;;;14.70;84.87;98137.34;1088630;47;945;-82
2023/10/30 17:49:45;;;;;;;;;;;;;;;14.62;85.08;98135.72;1088647;54;1035;-82
2023/10/30 17:51:07;;;;;;;;;;;;;;;14.62;85.23;98127.66;1088732;47;1013;-85
2023/10/30 17:52:40;;;;;;;;;;;;;;;14.61;85.36;98129.50;1088989;54;898;-84
2023/10/30 17:53:43;;;;;;;;;;;;;;;14.67;84.77;98133.22;1088787;47;1411;-82
2023/10/30 17:54:47;;;;;;;;;;;;;;;14.68;84.88;98126.00;1088715;47;997;-82
2023/10/30 17:55:49;;;;;;;;;;;;;;;14.71;84.63;98123.69;1088712;47;925;-82
2023/10/30 17:56:52;;;;;;;;;;;;;;;14.74;84.52;98117.84;1088734;54;1098;-83
2023/10/30 17:57:53;;;;;;;;;;;;;;;14.74;84.31;98114.34;1088772;54;939;-82
2023/10/30 17:58:56;;;;;;;;;;;;;;;14.72;84.31;98119.97;1088661;54;1022;-81
2023/10/30 17:59:57;;;;;;;;;;;;;;;14.70;84.28;98113.97;1088670;54;903;-81
2023/10/30 18:01:00;;;;;;;;;;;;;;;14.72;84.50;98119.13;1088688;47;1122;-82
2023/10/30 18:02:01;;;;;;;;;;;;;;;14.73;83.90;98115.38;1088600;47;1846;-83